Ana Sayfa
METAR-TAF:

METAR-TAF

Havaalanları :

Jasper County Airport (Bell Field)

Jasper, Teksas, Amerika Birleşik Devletleri

Enlem: 30-53-08N, Boylam: 094-02-05W, yükseklik: 65 m

Güncel hava durumu gözlemi

Rapor saat 21:15 UTC de 23 dakika önce yapıldı.
Rüzgar güneydan 5 kt
Sıcaklık 21°C
Nem 69%
Basınç 1009 hPa
Görüş mesafesi: 16.1 km
2800 ft yükseklikte parçalı bulutlu
3500 ft yükseklikte parçalı bulutlu
4400 ft yükseklikte parçalı bulutlu

METAR: KJAS 132115Z AUTO 17005KT 10SM SCT028 SCT035 SCT044 21/15 A2980 RMK AO2 T02110151

Saat: 15:38 (21:38 UTC)


TAF: eksik

4.000'den fazla havaalanı için hava durumu gözlemleri ve tahminleri (METAR ve TAF raporları).

Kullanılabilir istasyonlar harita üzerinde sarı ve kırmızı noktalarla gösterilir.

İstasyonun adını görmek için fareyi noktanın üzerinde gezdirin.

Sonrasında hava gözlem ve tahminlerini görmek için tıklayın.

Haritayı değiştirmek için: yaklaştırmak için siyah artı işaretli yeşil düğmeye ve uzaklaştırmak için de eksi işaretli düğmeye hızla tıklayın; bitişik haritalar için yeşil okları kullanın.


METAR-TAF: